Time;durP1;ratioP1;P1;durP2;ratioP2;P2;SDS_P1;SDS_P2;PMS_P1;PMS_P2;Temp;Humidity;BMP_temperature;BMP_pressure;BME280_temperature;BME280_humidity;BME280_pressure;Samples;Min_cycle;Max_cycle;Signal;HPM_P1;HPM_P2
2021/10/02 00:31:51;;;;;;;3.05;2.85;;;22.40;65.00;;;;;;5103850;28;20085;-36
2021/10/02 00:45:00;;;;;;;3.03;2.83;;;22.40;65.50;;;;;;5103659;28;20043;-36
2021/10/02 00:47:27;;;;;;;3.50;3.30;;;22.40;65.50;;;;;;5103829;28;20097;-36
2021/10/02 00:49:55;;;;;;;3.05;2.85;;;22.40;65.40;;;;;;5103731;28;20089;-36
2021/10/02 00:52:21;;;;;;;3.30;3.10;;;22.40;65.50;;;;;;5110042;28;20028;-36
2021/10/02 00:54:48;;;;;;;3.60;3.30;;;22.50;65.50;;;;;;5143662;27;20069;-36
2021/10/02 00:57:14;;;;;;;3.33;3.13;;;22.50;65.50;;;;;;5144158;27;20023;-36
2021/10/02 00:59:41;;;;;;;3.33;3.13;;;22.50;65.50;;;;;;5135834;27;20032;-36
2021/10/02 01:02:20;;;;;;;3.27;3.03;;;22.50;65.60;;;;;;5123812;28;20051;-36
2021/10/02 01:05:05;;;;;;;3.55;3.28;;;22.50;65.70;;;;;;5105307;28;20046;-36
2021/10/02 01:07:43;;;;;;;3.60;3.30;;;22.50;65.80;;;;;;5123074;28;20403;-36
2021/10/02 01:10:41;;;;;;;4.10;3.70;;;22.50;65.90;;;;;;5105569;28;20047;-36
2021/10/02 01:13:37;;;;;;;4.15;3.85;;;22.50;66.20;;;;;;5101350;28;20030;-36
2021/10/02 01:16:13;;;;;;;3.92;3.63;;;22.50;66.20;;;;;;5123486;28;20027;-36
2021/10/02 01:19:22;;;;;;;4.38;3.97;;;22.50;66.30;;;;;;5106435;28;20035;-36
2021/10/02 01:22:12;;;;;;;4.47;3.83;;;22.50;66.30;;;;;;5105396;27;20104;-36
2021/10/02 01:24:44;;;;;;;3.90;3.60;;;22.50;66.40;;;;;;5143834;27;20035;-36
2021/10/02 01:27:49;;;;;;;3.75;3.45;;;22.50;66.40;;;;;;5143711;27;20042;-36
2021/10/02 01:30:33;;;;;;;3.50;3.20;;;22.50;66.50;;;;;;5130404;27;20047;-37
2021/10/02 01:33:08;;;;;;;3.50;3.22;;;22.50;66.40;;;;;;5123399;28;20509;-36
2021/10/02 01:47:12;;;;;;;3.90;3.60;;;22.50;66.20;;;;;;5028094;28;20621;-36
2021/10/02 01:49:45;;;;;;;4.57;4.20;;;22.60;66.50;;;;;;5039846;28;20046;-36
2021/10/02 01:52:13;;;;;;;4.43;4.13;;;22.50;66.80;;;;;;5036835;28;20080;-36
2021/10/02 01:54:39;;;;;;;4.43;4.05;;;22.60;66.80;;;;;;5039656;28;20061;-36
2021/10/02 01:57:06;;;;;;;4.68;4.30;;;22.60;66.80;;;;;;5039694;28;20028;-36
2021/10/02 01:59:32;;;;;;;4.50;4.20;;;22.60;66.90;;;;;;5040005;28;20048;-36
2021/10/02 02:01:59;;;;;;;4.30;3.90;;;22.60;66.90;;;;;;5039752;28;20029;-36
2021/10/02 02:04:26;;;;;;;4.50;4.20;;;22.60;66.90;;;;;;5039961;28;20033;-36
2021/10/02 02:06:52;;;;;;;4.80;4.40;;;22.60;66.90;;;;;;5039637;28;20049;-36
2021/10/02 02:09:18;;;;;;;5.30;4.70;;;22.60;66.90;;;;;;5039602;28;20029;-36
2021/10/02 02:11:45;;;;;;;4.80;4.18;;;22.60;67.00;;;;;;5039717;28;20040;-36
2021/10/02 02:14:11;;;;;;;4.30;4.00;;;22.60;66.90;;;;;;5039849;28;20048;-36
2021/10/02 02:16:38;;;;;;;4.35;4.05;;;22.60;66.90;;;;;;5039778;28;20037;-36
2021/10/02 02:19:05;;;;;;;4.82;4.40;;;22.60;67.00;;;;;;5041897;28;20073;-36
2021/10/02 02:21:31;;;;;;;4.90;4.50;;;22.60;67.10;;;;;;5091245;27;20051;-36
2021/10/02 02:23:57;;;;;;;4.50;4.10;;;22.60;67.20;;;;;;5128973;27;20031;-36
2021/10/02 02:26:25;;;;;;;4.22;3.92;;;22.60;67.10;;;;;;5128999;27;20038;-36
2021/10/02 02:28:51;;;;;;;4.65;4.25;;;22.60;67.00;;;;;;5145898;27;20051;-36
2021/10/02 02:31:18;;;;;;;4.72;4.32;;;22.60;67.70;;;;;;5091649;28;20055;-36
2021/10/02 02:33:44;;;;;;;5.10;4.70;;;22.60;67.20;;;;;;5126799;28;20028;-36
2021/10/02 02:36:10;;;;;;;5.20;4.75;;;22.60;67.30;;;;;;5126819;28;20120;-36
2021/10/02 02:38:36;;;;;;;5.05;4.65;;;22.60;67.30;;;;;;5126693;28;20087;-36
2021/10/02 02:41:03;;;;;;;4.88;4.47;;;22.60;67.20;;;;;;5126762;28;20039;-36
2021/10/02 02:43:32;;;;;;;4.97;4.57;;;22.60;67.30;;;;;;5126540;28;20023;-36
2021/10/02 02:46:17;;;;;;;4.72;4.35;;;22.60;67.20;;;;;;5126509;28;20095;-36
2021/10/02 02:48:52;;;;;;;5.28;4.78;;;22.60;67.10;;;;;;5126573;28;20027;-36
2021/10/02 02:51:25;;;;;;;5.57;5.13;;;22.60;67.00;;;;;;5108727;28;20032;-36
2021/10/02 02:54:11;;;;;;;5.55;5.15;;;22.60;67.00;;;;;;5087445;28;20126;-36
2021/10/02 02:56:44;;;;;;;5.28;4.88;;;22.60;67.20;;;;;;5105935;28;20035;-36
2021/10/02 02:59:34;;;;;;;5.35;4.95;;;22.60;67.20;;;;;;5096169;27;20058;-36
2021/10/02 03:02:01;;;;;;;4.93;4.53;;;22.60;67.10;;;;;;5128454;27;20023;-36
2021/10/02 03:04:36;;;;;;;5.45;5.05;;;22.60;67.00;;;;;;5128111;27;20596;-36
2021/10/02 03:07:04;;;;;;;5.22;4.82;;;22.60;66.90;;;;;;5089462;28;20028;-36
2021/10/02 03:09:33;;;;;;;5.05;4.60;;;22.60;66.80;;;;;;5105855;28;20043;-36
2021/10/02 03:11:59;;;;;;;5.75;5.30;;;22.60;66.90;;;;;;5105631;28;20129;-36
2021/10/02 03:14:25;;;;;;;5.22;4.82;;;22.60;66.90;;;;;;5087125;28;20028;-36
2021/10/02 03:16:52;;;;;;;5.45;4.95;;;22.50;66.90;;;;;;5087361;28;20020;-36
2021/10/02 03:19:19;;;;;;;5.32;4.93;;;22.50;67.00;;;;;;5087127;28;20016;-36
2021/10/02 03:21:45;;;;;;;5.33;4.90;;;22.50;67.00;;;;;;5093824;27;20031;-36
2021/10/02 03:24:13;;;;;;;5.97;5.47;;;22.50;67.10;;;;;;5110691;27;20020;-36
2021/10/02 03:26:39;;;;;;;5.25;4.85;;;22.50;66.90;;;;;;5106671;27;20061;-36
2021/10/02 03:29:05;;;;;;;5.95;5.47;;;22.50;67.00;;;;;;5116540;27;20020;-36
2021/10/02 03:31:32;;;;;;;5.13;4.72;;;22.50;67.00;;;;;;5114246;27;20490;-36
2021/10/02 03:33:58;;;;;;;6.00;5.45;;;22.50;66.90;;;;;;5133461;27;20360;-37
2021/10/02 03:36:24;;;;;;;5.63;5.20;;;22.50;66.80;;;;;;5144795;27;20114;-36
2021/10/02 03:38:51;;;;;;;5.38;4.88;;;22.50;66.70;;;;;;5136884;27;20031;-36
2021/10/02 03:41:17;;;;;;;5.25;4.85;;;22.50;67.30;;;;;;5085076;28;20091;-36
2021/10/02 03:43:44;;;;;;;5.30;4.90;;;22.50;66.50;;;;;;5107230;27;20032;-36
2021/10/02 03:46:10;;;;;;;5.13;4.72;;;22.50;66.40;;;;;;5139254;27;20042;-36
2021/10/02 03:48:36;;;;;;;5.25;4.85;;;22.50;66.30;;;;;;5118911;27;20494;-36
2021/10/02 03:51:02;;;;;;;5.32;4.82;;;22.50;66.30;;;;;;5138220;27;20039;-36
2021/10/02 03:53:29;;;;;;;5.45;5.05;;;22.50;66.30;;;;;;5106801;28;20054;-36
2021/10/02 03:55:58;;;;;;;4.90;4.50;;;22.50;66.30;;;;;;5123216;27;20680;-36
2021/10/02 03:58:24;;;;;;;5.45;4.97;;;22.50;66.30;;;;;;5138443;27;20032;-37
2021/10/02 04:00:51;;;;;;;5.22;4.82;;;22.50;66.40;;;;;;5098660;28;20020;-36
2021/10/02 04:03:17;;;;;;;5.38;4.90;;;22.50;66.40;;;;;;5123594;28;20031;-36
2021/10/02 04:05:43;;;;;;;5.30;4.90;;;22.50;66.40;;;;;;5130064;27;20039;-37
2021/10/02 04:08:09;;;;;;;5.15;4.75;;;22.50;66.40;;;;;;5142470;27;20073;-37
2021/10/02 04:10:35;;;;;;;4.80;4.40;;;22.40;66.30;;;;;;5124875;28;20031;-37
2021/10/02 04:13:01;;;;;;;5.22;4.82;;;22.40;66.40;;;;;;5124969;28;20042;-36
2021/10/02 04:15:27;;;;;;;5.07;4.68;;;22.40;66.40;;;;;;5124371;28;20038;-36
2021/10/02 04:17:54;;;;;;;5.13;4.72;;;22.40;66.30;;;;;;5124578;28;20028;-36
2021/10/02 04:20:20;;;;;;;5.43;5.03;;;22.40;66.30;;;;;;5124535;28;20049;-36
2021/10/02 04:22:46;;;;;;;5.30;4.90;;;22.40;66.20;;;;;;5135589;27;20039;-37
2021/10/02 04:25:13;;;;;;;5.00;4.60;;;22.40;66.20;;;;;;5129381;27;20201;-36
2021/10/02 04:27:39;;;;;;;5.38;4.97;;;22.40;66.30;;;;;;5124050;28;20027;-36
2021/10/02 04:30:06;;;;;;;5.70;5.13;;;22.40;66.30;;;;;;5124488;28;20085;-36
2021/10/02 04:32:32;;;;;;;5.80;5.30;;;22.40;66.30;;;;;;5124194;28;20710;-36
2021/10/02 04:34:58;;;;;;;5.57;5.17;;;22.40;66.30;;;;;;5123408;28;20045;-36
2021/10/02 04:37:24;;;;;;;5.43;5.00;;;22.40;66.40;;;;;;5124267;28;20032;-36
2021/10/02 04:39:50;;;;;;;5.65;5.15;;;22.40;66.40;;;;;;5124265;28;20032;-36
2021/10/02 04:42:16;;;;;;;5.40;5.00;;;22.40;66.40;;;;;;5123412;28;20038;-36
2021/10/02 04:44:43;;;;;;;5.43;5.03;;;22.40;66.40;;;;;;5123580;28;20068;-36
2021/10/02 04:47:10;;;;;;;5.82;5.32;;;22.30;66.40;;;;;;5123877;28;20032;-37
2021/10/02 04:49:37;;;;;;;5.93;5.47;;;22.30;66.40;;;;;;5123972;28;20484;-36
2021/10/02 04:52:03;;;;;;;5.55;5.10;;;22.30;66.40;;;;;;5128759;27;20038;-36
2021/10/02 04:54:29;;;;;;;6.05;5.65;;;22.30;66.40;;;;;;5143884;27;20051;-36
2021/10/02 04:56:55;;;;;;;6.68;6.07;;;22.30;66.40;;;;;;5144532;27;20023;-38
2021/10/02 04:59:21;;;;;;;5.45;5.05;;;22.30;66.40;;;;;;5144436;27;20023;-36
2021/10/02 05:01:47;;;;;;;5.90;5.45;;;22.30;66.40;;;;;;5144095;27;20033;-36
2021/10/02 05:04:13;;;;;;;5.97;5.40;;;22.30;66.50;;;;;;5115214;27;20024;-36
2021/10/02 05:06:40;;;;;;;5.80;5.28;;;22.30;66.50;;;;;;5103082;28;20047;-36
2021/10/02 05:09:06;;;;;;;5.90;5.40;;;22.30;66.50;;;;;;5130469;27;20063;-36
2021/10/02 05:11:32;;;;;;;5.78;5.28;;;22.30;66.60;;;;;;5144268;27;20209;-36
2021/10/02 05:13:59;;;;;;;6.20;5.70;;;22.30;66.60;;;;;;5144370;27;20038;-36
2021/10/02 05:16:25;;;;;;;6.38;5.88;;;22.30;66.60;;;;;;5143827;27;20110;-36
2021/10/02 05:18:52;;;;;;;6.35;5.85;;;22.30;66.60;;;;;;5144141;27;20479;-36
2021/10/02 05:21:18;;;;;;;6.05;5.55;;;22.30;66.60;;;;;;5144091;27;20066;-36
2021/10/02 05:23:44;;;;;;;6.07;5.57;;;22.30;66.70;;;;;;5123156;27;20049;-36
2021/10/02 05:26:10;;;;;;;6.00;5.50;;;22.30;66.60;;;;;;5123055;28;20035;-36
2021/10/02 05:28:36;;;;;;;5.80;5.30;;;22.30;66.70;;;;;;5123236;28;20020;-36
2021/10/02 05:31:02;;;;;;;5.93;5.45;;;22.20;66.60;;;;;;5123048;28;20057;-36
2021/10/02 05:33:29;;;;;;;6.15;5.65;;;22.20;66.70;;;;;;5104911;28;20028;-36
2021/10/02 05:35:55;;;;;;;6.45;5.95;;;22.20;66.70;;;;;;5108067;28;20077;-37
2021/10/02 05:38:21;;;;;;;6.32;5.82;;;22.20;66.70;;;;;;5123018;28;20034;-36
2021/10/02 05:40:50;;;;;;;8.10;5.80;;;22.20;66.70;;;;;;5104581;28;20027;-37
2021/10/02 05:43:17;;;;;;;6.05;5.55;;;22.20;66.80;;;;;;5106605;28;20031;-36
2021/10/02 05:45:43;;;;;;;6.60;6.10;;;22.20;66.80;;;;;;5121379;28;20074;-36
2021/10/02 05:48:09;;;;;;;6.45;5.93;;;22.20;66.90;;;;;;5123221;28;20023;-36
2021/10/02 05:50:35;;;;;;;6.63;6.03;;;22.20;66.90;;;;;;5104789;28;20041;-36
2021/10/02 05:53:01;;;;;;;6.20;5.70;;;22.20;66.90;;;;;;5138754;27;20046;-36
2021/10/02 05:55:27;;;;;;;7.20;6.60;;;22.20;66.90;;;;;;5147572;27;20031;-36
2021/10/02 05:57:54;;;;;;;7.03;6.43;;;22.20;66.90;;;;;;5147945;27;20057;-36
2021/10/02 06:00:20;;;;;;;7.35;6.03;;;22.10;66.90;;;;;;5129547;27;20036;-36
2021/10/02 06:02:46;;;;;;;6.40;5.90;;;22.20;67.00;;;;;;5106956;28;20066;-36
2021/10/02 06:05:12;;;;;;;6.30;5.80;;;22.10;67.00;;;;;;5106236;28;20036;-36
2021/10/02 06:07:38;;;;;;;6.70;6.10;;;22.10;67.00;;;;;;5106408;28;20024;-36
2021/10/02 06:10:04;;;;;;;7.00;6.30;;;22.10;67.00;;;;;;5134551;27;20034;-36
2021/10/02 06:12:33;;;;;;;6.90;6.30;;;22.10;67.00;;;;;;5142316;27;20031;-36
2021/10/02 06:15:00;;;;;;;6.25;5.75;;;22.10;67.00;;;;;;5147071;27;20517;-37
2021/10/02 06:17:26;;;;;;;7.03;6.38;;;22.10;67.10;;;;;;5139874;27;20696;-36
2021/10/02 06:19:52;;;;;;;6.63;6.05;;;22.10;67.80;;;;;;5126435;28;20093;-36
2021/10/02 06:22:18;;;;;;;6.35;5.85;;;22.10;67.10;;;;;;5126845;28;20049;-36
2021/10/02 06:24:45;;;;;;;7.10;6.50;;;22.10;67.10;;;;;;5126343;28;20032;-36
2021/10/02 06:27:11;;;;;;;7.22;6.63;;;22.10;67.20;;;;;;5126262;28;20087;-37
2021/10/02 06:29:38;;;;;;;7.13;6.53;;;22.10;67.20;;;;;;5107030;28;20027;-36
2021/10/02 06:32:04;;;;;;;6.72;6.18;;;22.10;67.20;;;;;;5106310;28;20177;-36
2021/10/02 06:34:30;;;;;;;7.10;6.50;;;22.10;67.30;;;;;;5106199;28;20035;-36
2021/10/02 06:36:56;;;;;;;7.35;6.63;;;22.10;67.30;;;;;;5106069;28;20295;-36
2021/10/02 06:39:22;;;;;;;6.97;6.38;;;22.00;67.20;;;;;;5121814;28;20100;-36
2021/10/02 06:41:48;;;;;;;7.32;6.72;;;22.10;67.30;;;;;;5108259;28;20542;-37
2021/10/02 06:44:15;;;;;;;8.02;6.80;;;22.00;67.30;;;;;;5126273;28;20047;-36
2021/10/02 06:46:41;;;;;;;6.90;6.30;;;22.00;67.30;;;;;;5125632;28;20040;-36
2021/10/02 06:49:07;;;;;;;7.32;6.72;;;22.00;67.30;;;;;;5126512;28;20035;-36
2021/10/02 06:51:33;;;;;;;7.53;6.82;;;22.00;67.40;;;;;;5127811;27;20035;-37
2021/10/02 06:54:00;;;;;;;7.32;6.72;;;22.00;67.40;;;;;;5146604;27;20062;-36
2021/10/02 06:56:26;;;;;;;6.80;6.30;;;22.00;67.40;;;;;;5146414;27;20062;-36
2021/10/02 06:58:52;;;;;;;8.10;6.57;;;22.00;67.40;;;;;;5128134;27;20693;-36
2021/10/02 07:01:18;;;;;;;7.82;6.80;;;22.00;67.40;;;;;;5108183;28;20035;-36
2021/10/02 07:03:44;;;;;;;6.55;6.05;;;22.00;67.40;;;;;;5108425;28;20024;-36
2021/10/02 07:06:10;;;;;;;7.40;6.75;;;22.00;67.40;;;;;;5105047;28;20052;-36
2021/10/02 07:08:36;;;;;;;8.50;7.70;;;22.00;67.50;;;;;;5124209;27;20521;-36
2021/10/02 07:11:02;;;;;;;7.32;6.72;;;22.00;67.50;;;;;;5146573;27;20035;-36
2021/10/02 07:13:29;;;;;;;7.47;6.88;;;22.00;67.60;;;;;;5146354;27;20066;-36
2021/10/02 07:15:55;;;;;;;7.53;6.82;;;22.00;67.60;;;;;;5146186;27;20031;-36
2021/10/02 07:18:21;;;;;;;7.45;6.85;;;21.90;67.60;;;;;;5146451;27;20388;-36
2021/10/02 07:20:47;;;;;;;7.50;6.80;;;21.90;67.60;;;;;;5127017;27;20061;-36
2021/10/02 07:23:13;;;;;;;7.93;7.18;;;21.90;67.60;;;;;;5141301;27;20126;-36
2021/10/02 07:25:40;;;;;;;7.65;6.95;;;21.90;67.60;;;;;;5146039;27;20130;-36
2021/10/02 07:28:06;;;;;;;7.40;6.75;;;22.00;67.60;;;;;;5145865;27;20545;-36
2021/10/02 07:30:32;;;;;;;7.35;6.75;;;21.90;67.60;;;;;;5146129;27;20046;-36
2021/10/02 07:32:58;;;;;;;7.50;6.90;;;21.90;67.60;;;;;;5130325;27;20586;-36
2021/10/02 07:35:24;;;;;;;8.02;7.30;;;21.90;67.60;;;;;;5124265;28;20046;-36
2021/10/02 07:37:51;;;;;;;7.72;7.13;;;21.90;67.70;;;;;;5117163;28;20024;-36
2021/10/02 07:40:18;;;;;;;7.53;6.93;;;21.90;67.70;;;;;;5104901;28;20035;-36
2021/10/02 07:42:50;;;;;;;7.53;6.93;;;21.90;67.80;;;;;;5104796;28;20106;-36
2021/10/02 07:45:16;;;;;;;7.85;7.15;;;21.90;67.80;;;;;;5091896;28;20036;-36
2021/10/02 07:47:43;;;;;;;7.60;6.93;;;21.90;67.80;;;;;;5115000;28;20036;-36
2021/10/02 07:50:11;;;;;;;8.38;7.68;;;21.90;67.90;;;;;;5125298;28;20027;-36
2021/10/02 07:52:38;;;;;;;7.82;7.13;;;21.90;67.90;;;;;;5124592;28;20035;-37
2021/10/02 07:55:08;;;;;;;8.10;7.40;;;21.90;67.90;;;;;;5122225;28;20114;-36
2021/10/02 07:57:36;;;;;;;8.15;7.35;;;21.80;67.90;;;;;;5123451;28;20035;-36
2021/10/02 08:00:08;;;;;;;8.45;7.65;;;21.90;68.00;;;;;;5123355;28;20061;-36
2021/10/02 08:02:34;;;;;;;8.10;7.30;;;21.80;68.00;;;;;;5124898;28;20027;-36
2021/10/02 08:05:00;;;;;;;7.57;6.97;;;21.80;68.00;;;;;;5123302;28;20099;-36
2021/10/02 08:07:30;;;;;;;8.02;7.32;;;21.80;68.00;;;;;;5106287;28;20454;-37
2021/10/02 08:09:56;;;;;;;7.97;7.28;;;21.80;68.00;;;;;;5114700;28;20031;-36
2021/10/02 08:12:23;;;;;;;8.48;7.55;;;21.80;68.00;;;;;;5118329;28;20057;-36
2021/10/02 08:14:49;;;;;;;8.23;7.47;;;21.80;68.00;;;;;;5124632;28;20016;-36
2021/10/02 08:17:15;;;;;;;7.85;7.15;;;21.80;68.10;;;;;;5131473;27;20051;-36
2021/10/02 08:19:41;;;;;;;8.20;7.50;;;21.80;68.10;;;;;;5117828;28;20019;-36
2021/10/02 08:22:07;;;;;;;8.40;7.70;;;21.80;68.10;;;;;;5124352;28;20035;-36
2021/10/02 08:24:34;;;;;;;7.90;7.20;;;21.80;68.10;;;;;;5124395;28;20078;-36
2021/10/02 08:27:00;;;;;;;8.35;7.63;;;21.80;68.10;;;;;;5105937;28;20088;-36
2021/10/02 08:29:26;;;;;;;8.15;7.47;;;21.80;68.10;;;;;;5124415;28;20023;-36
2021/10/02 08:31:53;;;;;;;8.90;8.10;;;21.80;68.10;;;;;;5105986;28;20081;-36
2021/10/02 08:34:19;;;;;;;8.60;7.90;;;21.80;68.20;;;;;;5124476;28;20110;-36
2021/10/02 08:36:45;;;;;;;8.52;7.82;;;21.80;68.20;;;;;;5124088;28;20027;-36
2021/10/02 08:39:11;;;;;;;8.55;7.85;;;21.80;68.20;;;;;;5131759;27;20028;-36
2021/10/02 08:41:37;;;;;;;8.70;8.00;;;21.80;68.20;;;;;;5124105;28;20039;-36
2021/10/02 08:44:04;;;;;;;8.48;7.68;;;21.80;68.20;;;;;;5105852;28;20036;-36
2021/10/02 08:46:30;;;;;;;7.77;7.07;;;21.80;68.30;;;;;;5125035;27;20035;-36
2021/10/02 08:49:30;;;;;;;8.75;8.05;;;21.70;68.30;;;;;;5144094;27;20030;-36
2021/10/02 08:51:56;;;;;;;8.55;7.75;;;21.70;68.30;;;;;;5103622;28;20032;-36
2021/10/02 08:54:22;;;;;;;8.25;7.55;;;21.70;68.30;;;;;;5103389;28;20056;-36
2021/10/02 08:56:50;;;;;;;8.15;7.45;;;21.70;68.30;;;;;;5103165;28;20031;-36
2021/10/02 08:59:16;;;;;;;;;;;21.70;68.30;;;;;;5094401;28;20032;-36
2021/10/02 09:01:42;;;;;;;8.18;7.47;;;21.70;68.40;;;;;;5123869;28;19907;-36
2021/10/02 09:04:08;;;;;;;6.40;5.77;;;21.70;68.40;;;;;;5123378;28;20023;-36
2021/10/02 09:06:35;;;;;;;8.45;7.68;;;21.70;68.40;;;;;;5123237;28;20414;-36
2021/10/02 09:09:01;;;;;;;8.43;7.72;;;21.70;68.40;;;;;;5115810;28;20031;-36
2021/10/02 09:11:30;;;;;;;8.43;7.70;;;21.70;68.40;;;;;;5123522;28;20446;-36
2021/10/02 09:13:56;;;;;;;8.43;7.72;;;21.70;68.40;;;;;;5123489;28;20024;-37
2021/10/02 09:16:22;;;;;;;8.73;8.02;;;21.70;68.40;;;;;;5123908;28;20028;-36
2021/10/02 09:18:49;;;;;;;8.90;8.10;;;21.70;68.50;;;;;;5125458;27;20027;-36
2021/10/02 09:21:15;;;;;;;9.73;8.80;;;21.70;68.50;;;;;;5125630;27;20039;-36
2021/10/02 09:23:46;;;;;;;8.60;7.80;;;21.70;68.40;;;;;;5114308;27;20044;-36
2021/10/02 09:26:13;;;;;;;8.65;7.95;;;21.70;68.50;;;;;;5102819;28;20071;-36
2021/10/02 09:28:41;;;;;;;8.77;8.07;;;21.60;68.50;;;;;;5102731;28;20050;-36
2021/10/02 09:31:07;;;;;;;9.15;8.25;;;21.60;68.50;;;;;;5102974;28;20051;-36
2021/10/02 09:33:33;;;;;;;8.85;8.05;;;21.70;68.60;;;;;;5102671;28;20026;-36
2021/10/02 09:35:59;;;;;;;8.85;8.05;;;21.70;68.60;;;;;;5102872;28;20040;-36
2021/10/02 09:38:26;;;;;;;8.65;7.95;;;21.70;68.60;;;;;;5121447;27;20027;-36
2021/10/02 09:40:57;;;;;;;8.40;7.70;;;21.70;68.60;;;;;;5143856;27;20023;-36
2021/10/02 09:43:24;;;;;;;8.27;7.57;;;21.60;68.60;;;;;;5124295;27;20023;-36
2021/10/02 09:45:51;;;;;;;8.70;8.00;;;21.70;68.70;;;;;;5123049;28;20028;-36
2021/10/02 09:48:24;;;;;;;9.00;8.20;;;21.70;68.70;;;;;;5104072;28;20034;-36
2021/10/02 09:50:50;;;;;;;8.55;7.85;;;21.60;68.70;;;;;;5123184;28;20591;-37
2021/10/02 09:53:18;;;;;;;8.90;8.10;;;21.70;68.70;;;;;;5122959;28;20051;-36
2021/10/02 09:55:48;;;;;;;9.35;8.45;;;21.60;68.70;;;;;;5120885;28;20085;-36
2021/10/02 09:58:16;;;;;;;8.52;7.82;;;21.60;68.70;;;;;;5121508;28;20031;-36
2021/10/02 10:00:50;;;;;;;8.70;7.93;;;21.60;68.70;;;;;;5122867;28;20035;-37
2021/10/02 10:03:17;;;;;;;9.10;8.30;;;21.60;68.70;;;;;;5104506;28;20028;-36
2021/10/02 10:05:49;;;;;;;9.40;8.50;;;21.60;68.70;;;;;;5102630;28;20036;-36
2021/10/02 10:08:26;;;;;;;9.93;9.02;;;21.60;68.80;;;;;;5108902;28;20032;-36
2021/10/02 10:11:03;;;;;;;8.55;7.85;;;21.60;68.80;;;;;;5123147;28;20082;-37
2021/10/02 10:13:30;;;;;;;8.82;8.07;;;21.60;68.80;;;;;;5122925;28;20062;-36
2021/10/02 10:15:57;;;;;;;8.43;7.63;;;21.60;68.80;;;;;;5122694;28;20095;-36
2021/10/02 10:18:32;;;;;;;8.02;7.32;;;21.60;68.80;;;;;;5139721;28;20039;-36
2021/10/02 10:20:59;;;;;;;8.50;7.80;;;21.60;68.80;;;;;;5135587;28;20015;-36
2021/10/02 10:23:37;;;;;;;8.38;7.68;;;21.60;68.80;;;;;;5122325;28;20095;-36
2021/10/02 10:26:07;;;;;;;8.57;7.88;;;21.60;68.80;;;;;;5122703;28;20186;-36
2021/10/02 10:28:35;;;;;;;8.20;7.50;;;21.60;68.80;;;;;;5099793;28;20508;-36
2021/10/02 10:31:30;;;;;;;8.45;7.75;;;21.60;68.80;;;;;;5102822;28;20040;-36
2021/10/02 10:33:57;;;;;;;9.07;8.30;;;21.60;68.90;;;;;;5118914;28;20031;-36
2021/10/02 10:36:27;;;;;;;8.85;8.13;;;21.60;68.90;;;;;;5143251;28;20083;-36
2021/10/02 10:38:53;;;;;;;8.65;7.95;;;21.60;68.90;;;;;;5126927;28;20156;-36
2021/10/02 10:41:22;;;;;;;8.93;8.13;;;21.60;69.00;;;;;;5126604;28;20031;-36
2021/10/02 10:43:48;;;;;;;8.13;7.43;;;21.60;69.00;;;;;;5138025;27;20047;-36
2021/10/02 10:46:16;;;;;;;8.90;8.15;;;21.60;69.00;;;;;;5128478;27;20046;-36
2021/10/02 10:48:43;;;;;;;9.43;8.63;;;21.60;69.00;;;;;;5135970;27;20106;-36
2021/10/02 10:51:10;;;;;;;8.45;7.75;;;21.60;69.00;;;;;;5132745;27;20028;-36
2021/10/02 10:53:39;;;;;;;9.07;8.27;;;21.60;69.00;;;;;;5126122;28;20040;-36
2021/10/02 10:56:05;;;;;;;8.48;7.78;;;21.60;69.00;;;;;;5107396;28;20070;-36
2021/10/02 10:58:32;;;;;;;8.80;7.93;;;21.60;69.00;;;;;;5107895;28;20023;-36
2021/10/02 11:00:59;;;;;;;9.30;8.48;;;21.60;69.10;;;;;;5126403;28;20036;-36
2021/10/02 11:03:44;;;;;;;8.48;7.72;;;21.60;69.10;;;;;;5126285;28;20019;-36
2021/10/02 11:06:12;;;;;;;9.25;8.45;;;21.60;69.20;;;;;;5123636;28;20043;-36
2021/10/02 11:09:06;;;;;;;8.63;7.93;;;21.60;69.20;;;;;;5118794;28;20024;-36
2021/10/02 11:11:44;;;;;;;8.65;7.95;;;21.60;69.20;;;;;;5126023;28;20532;-36
2021/10/02 11:14:11;;;;;;;8.75;7.97;;;21.60;69.20;;;;;;5125950;28;20407;-36
2021/10/02 11:16:39;;;;;;;8.82;8.02;;;21.60;69.20;;;;;;5125562;28;20073;-37
2021/10/02 11:19:34;;;;;;;8.40;7.63;;;21.60;69.20;;;;;;5124489;28;20036;-36
2021/10/02 11:22:21;;;;;;;9.05;8.25;;;21.60;69.20;;;;;;5141030;27;20027;-37
2021/10/02 11:24:49;;;;;;;8.32;7.53;;;21.60;69.30;;;;;;5125401;28;20027;-36
2021/10/02 11:27:20;;;;;;;;;;;21.60;69.30;;;;;;5132438;27;20047;-36
2021/10/02 11:29:47;;;;;;;8.30;7.60;;;21.60;69.20;;;;;;5125311;28;20299;-36
2021/10/02 11:32:22;;;;;;;8.52;7.82;;;21.60;69.30;;;;;;5125531;28;20047;-36
2021/10/02 11:35:13;;;;;;;8.15;7.45;;;21.60;69.30;;;;;;5125566;28;20031;-36
2021/10/02 11:37:48;;;;;;;8.20;7.40;;;21.60;69.30;;;;;;5125101;28;20024;-36
2021/10/02 11:40:36;;;;;;;8.90;8.10;;;21.60;69.30;;;;;;5125533;28;20031;-36
2021/10/02 11:43:14;;;;;;;8.23;7.50;;;21.60;69.30;;;;;;5124147;28;20031;-36
2021/10/02 11:45:41;;;;;;;9.23;8.43;;;21.60;69.30;;;;;;5104771;28;20048;-36
2021/10/02 11:48:18;;;;;;;8.52;7.70;;;21.60;69.40;;;;;;5104754;28;20054;-36
2021/10/02 11:51:18;;;;;;;8.68;7.88;;;21.60;69.40;;;;;;5114023;27;20042;-36
2021/10/02 11:54:07;;;;;;;8.05;7.35;;;21.60;69.40;;;;;;5117987;27;20051;-36
2021/10/02 11:56:35;;;;;;;8.95;8.15;;;21.60;69.40;;;;;;5106470;27;20050;-36
2021/10/02 11:59:02;;;;;;;9.05;8.25;;;21.60;69.40;;;;;;5124012;28;20024;-36
2021/10/02 12:01:29;;;;;;;7.82;7.20;;;21.60;69.40;;;;;;5125119;28;20042;-36
2021/10/02 12:04:05;;;;;;;9.20;8.40;;;21.60;69.40;;;;;;5125055;28;20055;-36
2021/10/02 12:06:32;;;;;;;7.93;7.32;;;21.60;69.40;;;;;;5124946;28;20035;-36
2021/10/02 12:08:59;;;;;;;8.20;7.50;;;21.60;69.40;;;;;;5124647;28;20027;-36
2021/10/02 12:11:26;;;;;;;8.07;7.43;;;21.60;69.40;;;;;;5125050;28;20088;-36
2021/10/02 12:13:53;;;;;;;9.73;8.10;;;21.60;69.40;;;;;;5124678;28;20552;-36
2021/10/02 12:16:22;;;;;;;8.80;8.07;;;21.60;69.40;;;;;;5124455;28;20039;-36
2021/10/02 12:18:56;;;;;;;8.00;7.30;;;21.60;69.40;;;;;;5122397;28;20054;-36
2021/10/02 12:21:28;;;;;;;8.45;7.65;;;21.60;69.40;;;;;;5121544;28;20032;-36
2021/10/02 12:24:04;;;;;;;8.25;7.53;;;21.60;69.50;;;;;;5123959;28;20032;-36
2021/10/02 12:27:00;;;;;;;7.68;7.07;;;21.60;69.40;;;;;;5128504;27;20027;-36
2021/10/02 12:29:31;;;;;;;8.65;7.85;;;21.60;69.40;;;;;;5135918;27;20092;-37
2021/10/02 12:32:19;;;;;;;8.57;7.78;;;21.60;69.40;;;;;;5145169;27;20499;-36
2021/10/02 12:34:50;;;;;;;8.88;8.07;;;21.60;69.50;;;;;;5145022;27;20441;-37
2021/10/02 12:37:26;;;;;;;8.32;7.63;;;21.60;69.50;;;;;;5130922;27;20047;-36
2021/10/02 12:40:10;;;;;;;8.05;7.30;;;21.60;69.50;;;;;;5124120;28;20095;-36
2021/10/02 12:42:41;;;;;;;8.07;7.38;;;21.60;69.50;;;;;;5123825;28;20028;-36
2021/10/02 12:45:09;;;;;;;7.35;6.75;;;21.60;69.50;;;;;;5124224;28;20110;-36
2021/10/02 12:47:36;;;;;;;9.00;8.10;;;21.60;69.50;;;;;;5105857;28;20024;-36
2021/10/02 12:50:07;;;;;;;8.55;7.85;;;21.60;69.50;;;;;;5124190;28;20088;-36
2021/10/02 12:52:33;;;;;;;8.02;7.32;;;21.60;69.50;;;;;;5144337;27;20031;-36
2021/10/02 12:54:59;;;;;;;8.43;7.72;;;21.60;69.50;;;;;;5117544;28;20049;-36
2021/10/02 12:57:29;;;;;;;7.60;6.97;;;21.60;69.40;;;;;;5131422;27;20103;-36
2021/10/02 13:00:07;;;;;;;7.70;7.10;;;21.60;69.40;;;;;;5133390;27;20155;-37
2021/10/02 13:02:34;;;;;;;8.85;8.10;;;21.60;69.40;;;;;;5123267;28;20038;-36
2021/10/02 13:05:00;;;;;;;7.93;7.22;;;21.60;69.50;;;;;;5105303;28;20087;-36
2021/10/02 13:07:32;;;;;;;8.48;7.68;;;21.60;69.40;;;;;;5122589;28;20031;-36
2021/10/02 13:10:07;;;;;;;7.75;7.15;;;21.60;69.50;;;;;;5118294;28;20024;-36
2021/10/02 13:12:39;;;;;;;7.68;6.97;;;21.60;69.40;;;;;;5103586;28;20560;-36
2021/10/02 13:15:06;;;;;;;8.07;7.38;;;21.60;69.40;;;;;;5107482;28;20023;-36
2021/10/02 13:17:32;;;;;;;;;;;21.60;69.50;;;;;;5124268;28;20043;-36
2021/10/02 13:20:06;;;;;;;7.85;7.15;;;21.60;69.40;;;;;;5123636;28;19915;-36
2021/10/02 13:22:44;;;;;;;7.90;7.30;;;21.60;69.40;;;;;;5103588;28;20037;-36
2021/10/02 13:25:28;;;;;;;8.05;7.35;;;21.60;69.50;;;;;;5103109;28;20031;-36
2021/10/02 13:27:58;;;;;;;8.27;7.57;;;21.60;69.50;;;;;;5106735;27;20035;-36
2021/10/02 13:30:27;;;;;;;7.38;6.78;;;21.60;69.50;;;;;;5084743;28;20027;-36
2021/10/02 13:32:57;;;;;;;7.55;6.95;;;21.60;69.50;;;;;;5103370;28;20422;-36
2021/10/02 13:35:24;;;;;;;7.47;6.88;;;21.70;69.60;;;;;;5111672;28;20043;-36
2021/10/02 13:37:50;;;;;;;8.00;7.40;;;21.70;69.60;;;;;;5123453;28;20101;-37
2021/10/02 13:40:27;;;;;;;8.07;7.30;;;21.60;69.50;;;;;;5122689;28;20038;-36
2021/10/02 13:42:54;;;;;;;8.05;7.35;;;21.70;69.60;;;;;;5123476;28;20047;-36
2021/10/02 13:45:31;;;;;;;8.30;7.60;;;21.60;69.60;;;;;;5105029;28;20028;-36
2021/10/02 13:48:03;;;;;;;8.10;7.40;;;21.60;69.60;;;;;;5103000;28;20043;-36
2021/10/02 13:50:30;;;;;;;7.95;7.25;;;21.70;69.70;;;;;;5122834;28;20042;-36
2021/10/02 13:52:56;;;;;;;7.60;6.93;;;21.60;69.60;;;;;;5112255;28;20127;-36